sensor_id;sensor_type;location;lat;lon;timestamp;pressure;altitude;pressure_sealevel;temperature;humidity
596;BME280;19946;49.306;11.350;2023-03-12T00:02:50;96014.47;;;-4.30;100.00
596;BME280;19946;49.306;11.350;2023-03-12T00:05:52;95915.44;;;-5.18;100.00
596;BME280;19946;49.306;11.350;2023-03-12T00:08:53;95967.34;;;-4.83;100.00
596;BME280;19946;49.306;11.350;2023-03-12T00:11:55;96024.41;;;-4.51;100.00
596;BME280;19946;49.306;11.350;2023-03-12T00:14:59;96026.25;;;-4.54;100.00
596;BME280;19946;49.306;11.350;2023-03-12T00:18:04;95974.81;;;-5.06;100.00
596;BME280;19946;49.306;11.350;2023-03-12T00:21:06;96036.00;;;-4.70;100.00
596;BME280;19946;49.306;11.350;2023-03-12T00:24:08;96003.97;;;-4.96;100.00
596;BME280;19946;49.306;11.350;2023-03-12T00:27:10;95976.72;;;-5.12;100.00
596;BME280;19946;49.306;11.350;2023-03-12T00:30:13;95947.44;;;-5.44;100.00
596;BME280;19946;49.306;11.350;2023-03-12T00:33:13;95985.53;;;-5.26;100.00
596;BME280;19946;49.306;11.350;2023-03-12T00:36:18;96021.09;;;-5.05;100.00
596;BME280;19946;49.306;11.350;2023-03-12T00:39:22;96021.94;;;-5.05;100.00
596;BME280;19946;49.306;11.350;2023-03-12T00:42:22;95951.59;;;-5.43;100.00
596;BME280;19946;49.306;11.350;2023-03-12T00:45:23;95974.84;;;-5.34;100.00
596;BME280;19946;49.306;11.350;2023-03-12T00:48:25;95944.63;;;-5.63;100.00
596;BME280;19946;49.306;11.350;2023-03-12T00:51:26;95946.50;;;-5.70;100.00
596;BME280;19946;49.306;11.350;2023-03-12T00:54:27;95973.06;;;-5.58;100.00
596;BME280;19946;49.306;11.350;2023-03-12T00:57:28;96046.63;;;-5.15;100.00
596;BME280;19946;49.306;11.350;2023-03-12T01:00:29;96043.59;;;-5.26;100.00
596;BME280;19946;49.306;11.350;2023-03-12T01:03:31;96003.94;;;-5.50;100.00
596;BME280;19946;49.306;11.350;2023-03-12T01:06:32;95982.56;;;-5.66;100.00
596;BME280;19946;49.306;11.350;2023-03-12T01:09:33;96028.38;;;-5.23;100.00
596;BME280;19946;49.306;11.350;2023-03-12T01:12:35;95913.50;;;-5.90;100.00
596;BME280;19946;49.306;11.350;2023-03-12T01:15:36;95974.34;;;-5.45;100.00
596;BME280;19946;49.306;11.350;2023-03-12T01:18:37;95981.66;;;-5.36;100.00
596;BME280;19946;49.306;11.350;2023-03-12T01:21:39;95965.22;;;-5.49;100.00
596;BME280;19946;49.306;11.350;2023-03-12T01:24:40;95972.09;;;-5.54;100.00
596;BME280;19946;49.306;11.350;2023-03-12T01:27:41;96016.53;;;-5.21;100.00
596;BME280;19946;49.306;11.350;2023-03-12T01:30:43;95950.34;;;-5.58;100.00
596;BME280;19946;49.306;11.350;2023-03-12T01:33:48;95963.47;;;-5.47;100.00
596;BME280;19946;49.306;11.350;2023-03-12T01:36:49;95927.88;;;-5.66;100.00
596;BME280;19946;49.306;11.350;2023-03-12T01:39:50;95964.84;;;-5.37;100.00
596;BME280;19946;49.306;11.350;2023-03-12T01:42:56;96030.75;;;-4.90;100.00
596;BME280;19946;49.306;11.350;2023-03-12T01:46:05;96027.63;;;-4.72;100.00
596;BME280;19946;49.306;11.350;2023-03-12T01:49:23;96008.78;;;-4.62;100.00
596;BME280;19946;49.306;11.350;2023-03-12T01:52:32;96006.78;;;-4.52;100.00
596;BME280;19946;49.306;11.350;2023-03-12T01:55:35;96014.00;;;-4.42;100.00
596;BME280;19946;49.306;11.350;2023-03-12T01:58:42;96008.13;;;-4.42;100.00
596;BME280;19946;49.306;11.350;2023-03-12T02:01:49;95954.13;;;-4.89;100.00
596;BME280;19946;49.306;11.350;2023-03-12T02:05:02;96011.25;;;-4.60;100.00
596;BME280;19946;49.306;11.350;2023-03-12T02:08:05;95931.56;;;-4.95;100.00
596;BME280;19946;49.306;11.350;2023-03-12T02:11:10;96008.59;;;-4.56;100.00
596;BME280;19946;49.306;11.350;2023-03-12T02:14:12;95909.81;;;-5.26;100.00
596;BME280;19946;49.306;11.350;2023-03-12T02:17:15;95991.44;;;-4.72;100.00
596;BME280;19946;49.306;11.350;2023-03-12T02:20:21;95951.88;;;-4.98;100.00
596;BME280;19946;49.306;11.350;2023-03-12T02:23:32;96005.34;;;-4.59;100.00
596;BME280;19946;49.306;11.350;2023-03-12T02:26:40;96005.47;;;-4.64;100.00
596;BME280;19946;49.306;11.350;2023-03-12T02:29:42;95941.47;;;-5.16;100.00
596;BME280;19946;49.306;11.350;2023-03-12T02:32:45;95977.06;;;-4.97;100.00
596;BME280;19946;49.306;11.350;2023-03-12T02:35:47;95950.22;;;-5.26;100.00
596;BME280;19946;49.306;11.350;2023-03-12T02:38:50;95960.88;;;-5.18;100.00
596;BME280;19946;49.306;11.350;2023-03-12T02:41:53;95955.13;;;-5.21;100.00
596;BME280;19946;49.306;11.350;2023-03-12T02:44:55;96003.63;;;-4.85;100.00
596;BME280;19946;49.306;11.350;2023-03-12T02:47:55;95941.34;;;-5.11;100.00
596;BME280;19946;49.306;11.350;2023-03-12T02:50:56;95990.91;;;-4.82;100.00
596;BME280;19946;49.306;11.350;2023-03-12T02:53:57;95922.34;;;-4.96;100.00
596;BME280;19946;49.306;11.350;2023-03-12T02:56:58;95980.69;;;-4.53;100.00
596;BME280;19946;49.306;11.350;2023-03-12T03:00:07;95954.63;;;-4.80;100.00
596;BME280;19946;49.306;11.350;2023-03-12T03:03:13;95988.16;;;-4.50;100.00
596;BME280;19946;49.306;11.350;2023-03-12T03:06:14;95992.00;;;-4.38;100.00
596;BME280;19946;49.306;11.350;2023-03-12T03:09:15;95978.75;;;-4.45;100.00
596;BME280;19946;49.306;11.350;2023-03-12T03:12:17;96005.59;;;-4.17;100.00
596;BME280;19946;49.306;11.350;2023-03-12T03:15:17;95967.16;;;-4.52;100.00
596;BME280;19946;49.306;11.350;2023-03-12T03:18:18;96002.44;;;-4.22;100.00
596;BME280;19946;49.306;11.350;2023-03-12T03:21:18;96033.47;;;-3.94;100.00
596;BME280;19946;49.306;11.350;2023-03-12T03:24:19;95993.69;;;-4.14;100.00
596;BME280;19946;49.306;11.350;2023-03-12T03:27:21;96042.28;;;-3.81;100.00
596;BME280;19946;49.306;11.350;2023-03-12T03:30:22;96053.44;;;-3.86;100.00
596;BME280;19946;49.306;11.350;2023-03-12T03:33:25;95942.72;;;-4.51;100.00
596;BME280;19946;49.306;11.350;2023-03-12T03:36:26;96040.81;;;-3.88;100.00
596;BME280;19946;49.306;11.350;2023-03-12T03:39:35;95979.97;;;-4.31;100.00
596;BME280;19946;49.306;11.350;2023-03-12T03:42:38;96010.66;;;-4.17;100.00
596;BME280;19946;49.306;11.350;2023-03-12T03:45:40;95959.41;;;-4.46;100.00
596;BME280;19946;49.306;11.350;2023-03-12T03:48:45;96017.09;;;-4.09;100.00
596;BME280;19946;49.306;11.350;2023-03-12T03:51:47;96045.00;;;-3.87;100.00
596;BME280;19946;49.306;11.350;2023-03-12T03:54:52;95999.56;;;-4.13;100.00
596;BME280;19946;49.306;11.350;2023-03-12T03:57:55;96068.91;;;-3.71;100.00
596;BME280;19946;49.306;11.350;2023-03-12T04:00:55;96015.75;;;-3.94;100.00
596;BME280;19946;49.306;11.350;2023-03-12T04:03:57;95975.13;;;-4.13;100.00
596;BME280;19946;49.306;11.350;2023-03-12T04:06:58;96023.69;;;-3.80;100.00
596;BME280;19946;49.306;11.350;2023-03-12T04:09:59;95987.06;;;-3.93;100.00
596;BME280;19946;49.306;11.350;2023-03-12T04:13:01;96031.78;;;-3.70;100.00
596;BME280;19946;49.306;11.350;2023-03-12T04:16:02;96022.22;;;-3.62;100.00
596;BME280;19946;49.306;11.350;2023-03-12T04:19:03;96013.78;;;-3.62;100.00
596;BME280;19946;49.306;11.350;2023-03-12T04:22:04;95971.84;;;-3.91;100.00
596;BME280;19946;49.306;11.350;2023-03-12T04:25:06;95967.47;;;-3.88;100.00
596;BME280;19946;49.306;11.350;2023-03-12T04:28:07;96044.06;;;-3.36;100.00
596;BME280;19946;49.306;11.350;2023-03-12T04:31:11;95978.75;;;-3.73;100.00
596;BME280;19946;49.306;11.350;2023-03-12T04:34:17;95952.09;;;-3.82;100.00
596;BME280;19946;49.306;11.350;2023-03-12T04:37:21;95992.34;;;-3.52;100.00
596;BME280;19946;49.306;11.350;2023-03-12T04:40:22;95964.94;;;-3.64;100.00
596;BME280;19946;49.306;11.350;2023-03-12T04:43:24;95953.50;;;-3.75;100.00
596;BME280;19946;49.306;11.350;2023-03-12T04:46:26;95967.22;;;-3.57;100.00
596;BME280;19946;49.306;11.350;2023-03-12T04:49:27;95982.97;;;-3.50;100.00
596;BME280;19946;49.306;11.350;2023-03-12T04:52:29;95905.28;;;-3.93;100.00
596;BME280;19946;49.306;11.350;2023-03-12T04:55:30;95908.41;;;-3.87;100.00
596;BME280;19946;49.306;11.350;2023-03-12T04:58:31;96020.34;;;-3.12;100.00
596;BME280;19946;49.306;11.350;2023-03-12T05:01:35;95966.19;;;-3.53;100.00
596;BME280;19946;49.306;11.350;2023-03-12T05:04:40;96038.84;;;-3.10;100.00
596;BME280;19946;49.306;11.350;2023-03-12T05:07:42;96006.66;;;-3.29;100.00
596;BME280;19946;49.306;11.350;2023-03-12T05:10:43;95953.53;;;-3.53;100.00
596;BME280;19946;49.306;11.350;2023-03-12T05:13:51;95961.91;;;-3.51;100.00
596;BME280;19946;49.306;11.350;2023-03-12T05:16:52;96003.56;;;-3.36;100.00
596;BME280;19946;49.306;11.350;2023-03-12T05:19:54;95961.97;;;-3.52;100.00
596;BME280;19946;49.306;11.350;2023-03-12T05:22:59;95928.97;;;-3.73;100.00
596;BME280;19946;49.306;11.350;2023-03-12T05:25:59;96004.97;;;-3.29;100.00
596;BME280;19946;49.306;11.350;2023-03-12T05:29:02;95982.25;;;-3.54;100.00
596;BME280;19946;49.306;11.350;2023-03-12T05:32:04;95922.66;;;-3.84;100.00
596;BME280;19946;49.306;11.350;2023-03-12T05:35:09;95979.28;;;-3.42;100.00
596;BME280;19946;49.306;11.350;2023-03-12T05:38:16;95959.25;;;-3.70;100.00
596;BME280;19946;49.306;11.350;2023-03-12T05:41:26;96027.69;;;-3.27;100.00
596;BME280;19946;49.306;11.350;2023-03-12T05:44:32;95967.56;;;-3.68;100.00
596;BME280;19946;49.306;11.350;2023-03-12T05:47:35;96033.00;;;-3.12;100.00
596;BME280;19946;49.306;11.350;2023-03-12T05:50:37;95985.06;;;-3.38;100.00
596;BME280;19946;49.306;11.350;2023-03-12T05:53:38;96032.84;;;-3.07;100.00
596;BME280;19946;49.306;11.350;2023-03-12T05:56:39;95996.38;;;-3.25;100.00
596;BME280;19946;49.306;11.350;2023-03-12T05:59:40;96020.81;;;-3.02;100.00
596;BME280;19946;49.306;11.350;2023-03-12T06:02:44;96018.88;;;-2.96;100.00
596;BME280;19946;49.306;11.350;2023-03-12T06:05:44;96030.19;;;-2.82;100.00
596;BME280;19946;49.306;11.350;2023-03-12T06:08:48;95984.13;;;-3.14;100.00
596;BME280;19946;49.306;11.350;2023-03-12T06:11:49;96036.97;;;-2.83;100.00
596;BME280;19946;49.306;11.350;2023-03-12T06:14:50;95986.38;;;-3.06;100.00
596;BME280;19946;49.306;11.350;2023-03-12T06:17:51;95981.59;;;-2.92;100.00
596;BME280;19946;49.306;11.350;2023-03-12T06:20:51;96008.44;;;-2.66;100.00
596;BME280;19946;49.306;11.350;2023-03-12T06:23:52;96037.38;;;-2.50;100.00
596;BME280;19946;49.306;11.350;2023-03-12T06:27:00;95980.41;;;-2.83;100.00
596;BME280;19946;49.306;11.350;2023-03-12T06:30:01;95957.78;;;-2.88;100.00
596;BME280;19946;49.306;11.350;2023-03-12T06:33:02;95951.72;;;-2.84;100.00
596;BME280;19946;49.306;11.350;2023-03-12T06:36:06;96009.59;;;-2.33;100.00
596;BME280;19946;49.306;11.350;2023-03-12T06:39:08;96037.13;;;-2.03;100.00
596;BME280;19946;49.306;11.350;2023-03-12T06:42:09;96032.47;;;-1.94;100.00
596;BME280;19946;49.306;11.350;2023-03-12T06:45:12;96056.06;;;-1.71;100.00
596;BME280;19946;49.306;11.350;2023-03-12T06:48:12;95993.59;;;-2.14;100.00
596;BME280;19946;49.306;11.350;2023-03-12T06:51:14;96037.75;;;-1.78;100.00
596;BME280;19946;49.306;11.350;2023-03-12T06:54:15;95975.78;;;-2.13;100.00
596;BME280;19946;49.306;11.350;2023-03-12T06:57:15;95989.94;;;-2.07;100.00
596;BME280;19946;49.306;11.350;2023-03-12T07:00:16;96013.53;;;-1.85;100.00
596;BME280;19946;49.306;11.350;2023-03-12T07:03:16;96065.88;;;-1.43;100.00
596;BME280;19946;49.306;11.350;2023-03-12T07:06:19;95951.00;;;-2.06;100.00
596;BME280;19946;49.306;11.350;2023-03-12T07:09:21;96004.28;;;-1.49;100.00
596;BME280;19946;49.306;11.350;2023-03-12T07:12:21;96047.25;;;-1.25;100.00
596;BME280;19946;49.306;11.350;2023-03-12T07:15:23;96043.84;;;-1.24;100.00
596;BME280;19946;49.306;11.350;2023-03-12T07:18:25;96027.72;;;-1.42;100.00
596;BME280;19946;49.306;11.350;2023-03-12T07:21:28;96033.53;;;-1.40;100.00
596;BME280;19946;49.306;11.350;2023-03-12T07:24:28;96063.25;;;-1.04;100.00
596;BME280;19946;49.306;11.350;2023-03-12T07:27:29;96034.63;;;-1.08;100.00
596;BME280;19946;49.306;11.350;2023-03-12T07:30:30;96027.16;;;-1.11;100.00
596;BME280;19946;49.306;11.350;2023-03-12T07:33:33;96040.19;;;-1.00;100.00
596;BME280;19946;49.306;11.350;2023-03-12T07:36:34;95997.84;;;-1.37;100.00
596;BME280;19946;49.306;11.350;2023-03-12T07:39:35;96006.25;;;-1.18;100.00
596;BME280;19946;49.306;11.350;2023-03-12T07:42:35;96020.88;;;-1.04;100.00
596;BME280;19946;49.306;11.350;2023-03-12T07:45:39;96038.84;;;-0.71;100.00
596;BME280;19946;49.306;11.350;2023-03-12T07:48:39;95982.06;;;-1.07;100.00
596;BME280;19946;49.306;11.350;2023-03-12T07:51:40;95981.81;;;-1.01;100.00
596;BME280;19946;49.306;11.350;2023-03-12T07:54:40;96021.47;;;-0.44;100.00
596;BME280;19946;49.306;11.350;2023-03-12T07:57:41;95974.47;;;-0.54;100.00
596;BME280;19946;49.306;11.350;2023-03-12T08:00:42;95958.59;;;-0.59;100.00
596;BME280;19946;49.306;11.350;2023-03-12T08:03:42;95986.19;;;-0.52;100.00
596;BME280;19946;49.306;11.350;2023-03-12T08:06:43;96011.13;;;-0.24;100.00
596;BME280;19946;49.306;11.350;2023-03-12T08:09:44;96008.81;;;-0.11;100.00
596;BME280;19946;49.306;11.350;2023-03-12T08:12:45;95971.41;;;-0.26;100.00
596;BME280;19946;49.306;11.350;2023-03-12T08:15:46;96033.56;;;0.20;100.00
596;BME280;19946;49.306;11.350;2023-03-12T08:18:46;95995.78;;;-0.05;100.00
596;BME280;19946;49.306;11.350;2023-03-12T08:21:47;96009.69;;;0.05;100.00
596;BME280;19946;49.306;11.350;2023-03-12T08:24:49;95952.16;;;-0.15;100.00
596;BME280;19946;49.306;11.350;2023-03-12T08:27:51;96008.09;;;0.20;100.00
596;BME280;19946;49.306;11.350;2023-03-12T08:30:53;96039.00;;;0.29;100.00
596;BME280;19946;49.306;11.350;2023-03-12T08:33:53;96041.03;;;0.23;100.00
596;BME280;19946;49.306;11.350;2023-03-12T08:36:54;95984.44;;;0.00;100.00
596;BME280;19946;49.306;11.350;2023-03-12T08:39:55;96015.69;;;0.37;100.00
596;BME280;19946;49.306;11.350;2023-03-12T08:42:56;96039.56;;;0.67;100.00
596;BME280;19946;49.306;11.350;2023-03-12T08:45:58;96025.06;;;0.85;100.00
596;BME280;19946;49.306;11.350;2023-03-12T08:49:00;95928.53;;;0.48;100.00
596;BME280;19946;49.306;11.350;2023-03-12T08:52:02;95962.34;;;0.34;100.00
596;BME280;19946;49.306;11.350;2023-03-12T08:55:03;95972.25;;;0.40;100.00
596;BME280;19946;49.306;11.350;2023-03-12T08:58:06;95982.63;;;0.53;100.00
596;BME280;19946;49.306;11.350;2023-03-12T09:01:10;96032.84;;;0.82;100.00
596;BME280;19946;49.306;11.350;2023-03-12T09:04:11;95998.22;;;0.78;100.00
596;BME280;19946;49.306;11.350;2023-03-12T09:07:11;95992.16;;;1.12;100.00
596;BME280;19946;49.306;11.350;2023-03-12T09:10:13;95930.84;;;0.84;100.00
596;BME280;19946;49.306;11.350;2023-03-12T09:13:13;96031.03;;;1.31;100.00
596;BME280;19946;49.306;11.350;2023-03-12T09:16:14;96029.22;;;1.49;100.00
596;BME280;19946;49.306;11.350;2023-03-12T09:19:15;95999.34;;;1.35;100.00
596;BME280;19946;49.306;11.350;2023-03-12T09:22:15;95998.97;;;1.27;100.00
596;BME280;19946;49.306;11.350;2023-03-12T09:25:17;95993.72;;;1.60;100.00
596;BME280;19946;49.306;11.350;2023-03-12T09:28:17;95994.09;;;1.68;100.00
596;BME280;19946;49.306;11.350;2023-03-12T09:31:20;95972.19;;;1.50;100.00
596;BME280;19946;49.306;11.350;2023-03-12T09:34:21;95987.88;;;2.16;100.00
596;BME280;19946;49.306;11.350;2023-03-12T09:37:21;96030.25;;;2.63;100.00
596;BME280;19946;49.306;11.350;2023-03-12T09:40:24;96013.44;;;2.87;100.00
596;BME280;19946;49.306;11.350;2023-03-12T09:43:37;96016.28;;;2.26;100.00
596;BME280;19946;49.306;11.350;2023-03-12T09:46:45;95970.91;;;2.44;100.00
596;BME280;19946;49.306;11.350;2023-03-12T09:49:50;96001.41;;;2.33;100.00
596;BME280;19946;49.306;11.350;2023-03-12T09:53:15;96017.19;;;2.39;100.00
596;BME280;19946;49.306;11.350;2023-03-12T09:56:20;95981.31;;;2.12;100.00
596;BME280;19946;49.306;11.350;2023-03-12T09:59:21;95968.28;;;1.59;100.00
596;BME280;19946;49.306;11.350;2023-03-12T10:02:35;95955.53;;;1.59;100.00
596;BME280;19946;49.306;11.350;2023-03-12T10:10:11;96027.66;;;2.20;100.00
596;BME280;19946;49.306;11.350;2023-03-12T10:17:00;95960.50;;;1.90;100.00
596;BME280;19946;49.306;11.350;2023-03-12T10:28:35;95958.69;;;2.06;100.00
596;BME280;19946;49.306;11.350;2023-03-12T10:36:21;95945.56;;;2.27;100.00
596;BME280;19946;49.306;11.350;2023-03-12T10:39:50;95901.59;;;2.22;100.00
596;BME280;19946;49.306;11.350;2023-03-12T10:43:01;95949.59;;;2.72;100.00
596;BME280;19946;49.306;11.350;2023-03-12T10:46:59;95955.03;;;2.39;100.00
596;BME280;19946;49.306;11.350;2023-03-12T10:50:20;95950.69;;;2.27;100.00
596;BME280;19946;49.306;11.350;2023-03-12T10:53:28;95907.50;;;1.79;100.00
596;BME280;19946;49.306;11.350;2023-03-12T10:56:48;95975.28;;;1.99;100.00
596;BME280;19946;49.306;11.350;2023-03-12T11:00:08;95934.88;;;1.92;100.00
596;BME280;19946;49.306;11.350;2023-03-12T11:03:22;96002.78;;;2.24;100.00
596;BME280;19946;49.306;11.350;2023-03-12T11:06:32;95987.88;;;2.31;100.00
596;BME280;19946;49.306;11.350;2023-03-12T11:09:39;96015.06;;;2.17;100.00
596;BME280;19946;49.306;11.350;2023-03-12T11:13:00;96003.63;;;1.80;100.00
596;BME280;19946;49.306;11.350;2023-03-12T11:19:34;96024.88;;;1.95;100.00
596;BME280;19946;49.306;11.350;2023-03-12T11:22:36;95932.59;;;1.43;100.00
596;BME280;19946;49.306;11.350;2023-03-12T11:25:38;96024.16;;;2.07;100.00
596;BME280;19946;49.306;11.350;2023-03-12T11:28:50;95934.41;;;1.11;100.00
596;BME280;19946;49.306;11.350;2023-03-12T11:39:07;96021.19;;;1.85;100.00
596;BME280;19946;49.306;11.350;2023-03-12T11:42:36;96021.56;;;1.79;100.00
596;BME280;19946;49.306;11.350;2023-03-12T11:57:05;96004.34;;;1.53;100.00
596;BME280;19946;49.306;11.350;2023-03-12T12:00:26;95928.19;;;1.31;100.00
596;BME280;19946;49.306;11.350;2023-03-12T12:03:53;96002.88;;;1.78;100.00
596;BME280;19946;49.306;11.350;2023-03-12T12:33:08;95922.25;;;1.60;100.00
596;BME280;19946;49.306;11.350;2023-03-12T12:36:20;95924.28;;;1.69;100.00
596;BME280;19946;49.306;11.350;2023-03-12T12:39:39;95956.03;;;1.94;100.00
596;BME280;19946;49.306;11.350;2023-03-12T12:46:33;95973.28;;;2.04;100.00
596;BME280;19946;49.306;11.350;2023-03-12T12:49:56;95963.78;;;2.06;100.00
596;BME280;19946;49.306;11.350;2023-03-12T12:53:07;95956.31;;;2.17;100.00
596;BME280;19946;49.306;11.350;2023-03-12T13:01:27;95926.03;;;1.97;100.00
596;BME280;19946;49.306;11.350;2023-03-12T13:05:52;95919.09;;;2.13;100.00
596;BME280;19946;49.306;11.350;2023-03-12T13:09:19;95868.47;;;1.63;100.00
596;BME280;19946;49.306;11.350;2023-03-12T13:13:02;95950.50;;;2.15;100.00
596;BME280;19946;49.306;11.350;2023-03-12T13:19:28;95967.09;;;2.23;100.00
596;BME280;19946;49.306;11.350;2023-03-12T13:23:00;95969.84;;;2.34;100.00
596;BME280;19946;49.306;11.350;2023-03-12T13:30:02;95919.72;;;2.17;100.00
596;BME280;19946;49.306;11.350;2023-03-12T13:34:29;95936.44;;;2.23;100.00
596;BME280;19946;49.306;11.350;2023-03-12T13:40:54;95907.25;;;2.12;100.00
596;BME280;19946;49.306;11.350;2023-03-12T13:47:45;95914.28;;;2.23;100.00
596;BME280;19946;49.306;11.350;2023-03-12T13:50:53;95930.13;;;2.28;100.00
596;BME280;19946;49.306;11.350;2023-03-12T13:53:58;95934.59;;;2.39;100.00
596;BME280;19946;49.306;11.350;2023-03-12T13:57:10;95947.91;;;2.44;100.00
596;BME280;19946;49.306;11.350;2023-03-12T14:00:18;95952.22;;;2.58;100.00
596;BME280;19946;49.306;11.350;2023-03-12T14:03:30;95945.97;;;2.62;100.00
596;BME280;19946;49.306;11.350;2023-03-12T14:06:46;95941.59;;;2.64;100.00
596;BME280;19946;49.306;11.350;2023-03-12T14:10:00;95945.16;;;2.61;100.00
596;BME280;19946;49.306;11.350;2023-03-12T14:13:24;95963.22;;;2.72;100.00
596;BME280;19946;49.306;11.350;2023-03-12T14:16:39;95939.22;;;2.61;100.00
596;BME280;19946;49.306;11.350;2023-03-12T14:19:45;95959.38;;;2.79;100.00
596;BME280;19946;49.306;11.350;2023-03-12T14:22:53;95936.56;;;2.76;100.00
596;BME280;19946;49.306;11.350;2023-03-12T14:25:57;95936.88;;;2.84;100.00
596;BME280;19946;49.306;11.350;2023-03-12T14:29:18;95910.25;;;2.74;100.00
596;BME280;19946;49.306;11.350;2023-03-12T14:32:22;95946.69;;;3.05;100.00
596;BME280;19946;49.306;11.350;2023-03-12T14:35:45;95924.25;;;2.96;100.00
596;BME280;19946;49.306;11.350;2023-03-12T14:38:55;95940.44;;;3.23;100.00
596;BME280;19946;49.306;11.350;2023-03-12T14:42:03;95884.97;;;2.97;100.00
596;BME280;19946;49.306;11.350;2023-03-12T14:48:09;95925.94;;;3.49;100.00
596;BME280;19946;49.306;11.350;2023-03-12T14:51:24;95905.69;;;3.46;100.00
596;BME280;19946;49.306;11.350;2023-03-12T14:54:26;95901.38;;;3.59;100.00
596;BME280;19946;49.306;11.350;2023-03-12T14:57:27;95891.25;;;3.57;100.00
596;BME280;19946;49.306;11.350;2023-03-12T15:00:28;95939.22;;;3.93;100.00
596;BME280;19946;49.306;11.350;2023-03-12T15:03:29;95948.94;;;4.01;100.00
596;BME280;19946;49.306;11.350;2023-03-12T15:06:35;95929.69;;;3.95;100.00
596;BME280;19946;49.306;11.350;2023-03-12T15:09:42;95928.88;;;3.95;100.00
596;BME280;19946;49.306;11.350;2023-03-12T15:12:44;95940.53;;;4.12;100.00
596;BME280;19946;49.306;11.350;2023-03-12T15:15:47;95930.63;;;4.20;100.00
596;BME280;19946;49.306;11.350;2023-03-12T15:18:49;95951.31;;;4.29;100.00
596;BME280;19946;49.306;11.350;2023-03-12T15:21:53;95870.78;;;3.83;100.00
596;BME280;19946;49.306;11.350;2023-03-12T15:24:54;95915.75;;;4.12;100.00
596;BME280;19946;49.306;11.350;2023-03-12T15:28:04;95944.63;;;4.39;100.00
596;BME280;19946;49.306;11.350;2023-03-12T15:31:12;95946.97;;;4.55;100.00
596;BME280;19946;49.306;11.350;2023-03-12T15:34:50;95946.56;;;4.61;100.00
596;BME280;19946;49.306;11.350;2023-03-12T15:37:51;95904.09;;;4.45;100.00
596;BME280;19946;49.306;11.350;2023-03-12T15:40:54;95921.44;;;4.54;100.00
596;BME280;19946;49.306;11.350;2023-03-12T15:43:57;95885.97;;;4.35;100.00
596;BME280;19946;49.306;11.350;2023-03-12T15:47:09;95936.75;;;4.79;100.00
596;BME280;19946;49.306;11.350;2023-03-12T15:50:29;95874.25;;;4.56;100.00
596;BME280;19946;49.306;11.350;2023-03-12T15:53:32;95917.94;;;4.91;100.00
596;BME280;19946;49.306;11.350;2023-03-12T15:56:34;95856.28;;;4.56;100.00
596;BME280;19946;49.306;11.350;2023-03-12T15:59:35;95873.66;;;4.76;100.00
596;BME280;19946;49.306;11.350;2023-03-12T16:02:38;95907.91;;;5.12;100.00
596;BME280;19946;49.306;11.350;2023-03-12T16:05:39;95859.81;;;4.79;100.00
596;BME280;19946;49.306;11.350;2023-03-12T16:08:51;95916.25;;;5.27;100.00
596;BME280;19946;49.306;11.350;2023-03-12T16:11:53;95848.28;;;4.85;100.00
596;BME280;19946;49.306;11.350;2023-03-12T16:14:54;95907.47;;;5.18;100.00
596;BME280;19946;49.306;11.350;2023-03-12T16:17:55;95884.78;;;5.12;100.00
596;BME280;19946;49.306;11.350;2023-03-12T16:20:55;95918.81;;;5.27;100.00
596;BME280;19946;49.306;11.350;2023-03-12T16:23:56;95912.47;;;5.20;100.00
596;BME280;19946;49.306;11.350;2023-03-12T16:26:57;95933.88;;;5.31;100.00
596;BME280;19946;49.306;11.350;2023-03-12T16:30:00;95915.75;;;5.22;100.00
596;BME280;19946;49.306;11.350;2023-03-12T16:33:02;95882.28;;;4.99;100.00
596;BME280;19946;49.306;11.350;2023-03-12T16:36:09;95889.06;;;5.00;100.00
596;BME280;19946;49.306;11.350;2023-03-12T16:39:11;95942.63;;;5.29;100.00
596;BME280;19946;49.306;11.350;2023-03-12T16:42:15;95900.41;;;5.09;100.00
596;BME280;19946;49.306;11.350;2023-03-12T16:45:17;95903.31;;;5.04;100.00
596;BME280;19946;49.306;11.350;2023-03-12T16:48:20;95917.53;;;5.08;100.00
596;BME280;19946;49.306;11.350;2023-03-12T16:51:23;95917.22;;;5.13;100.00
596;BME280;19946;49.306;11.350;2023-03-12T16:54:24;95910.66;;;5.09;100.00
596;BME280;19946;49.306;11.350;2023-03-12T16:57:28;95946.66;;;5.44;100.00
596;BME280;19946;49.306;11.350;2023-03-12T17:00:32;95865.81;;;4.91;100.00
596;BME280;19946;49.306;11.350;2023-03-12T17:03:37;95930.38;;;5.32;100.00
596;BME280;19946;49.306;11.350;2023-03-12T17:06:37;95925.59;;;5.28;100.00
596;BME280;19946;49.306;11.350;2023-03-12T17:09:39;95944.53;;;5.38;100.00
596;BME280;19946;49.306;11.350;2023-03-12T17:12:40;95914.72;;;5.24;100.00
596;BME280;19946;49.306;11.350;2023-03-12T17:15:42;95928.16;;;5.28;100.00
596;BME280;19946;49.306;11.350;2023-03-12T17:18:43;95955.06;;;5.46;100.00
596;BME280;19946;49.306;11.350;2023-03-12T17:21:43;95912.19;;;5.11;100.00
596;BME280;19946;49.306;11.350;2023-03-12T17:24:44;95913.47;;;5.06;100.00
596;BME280;19946;49.306;11.350;2023-03-12T17:27:46;95935.13;;;5.02;100.00
596;BME280;19946;49.306;11.350;2023-03-12T17:30:46;95943.94;;;4.87;100.00
596;BME280;19946;49.306;11.350;2023-03-12T17:33:47;95962.59;;;4.89;100.00
596;BME280;19946;49.306;11.350;2023-03-12T17:36:47;95904.34;;;4.42;100.00
596;BME280;19946;49.306;11.350;2023-03-12T17:39:48;95968.69;;;4.75;100.00
596;BME280;19946;49.306;11.350;2023-03-12T17:42:48;95919.81;;;4.76;100.00
596;BME280;19946;49.306;11.350;2023-03-12T17:45:50;95945.03;;;4.95;100.00
596;BME280;19946;49.306;11.350;2023-03-12T17:48:52;95940.31;;;4.89;100.00
596;BME280;19946;49.306;11.350;2023-03-12T17:51:53;95941.41;;;4.61;100.00
596;BME280;19946;49.306;11.350;2023-03-12T17:54:54;95923.84;;;4.68;100.00
596;BME280;19946;49.306;11.350;2023-03-12T17:57:55;95980.41;;;5.03;100.00
596;BME280;19946;49.306;11.350;2023-03-12T18:00:57;95978.66;;;5.03;100.00
596;BME280;19946;49.306;11.350;2023-03-12T18:03:58;95938.19;;;4.83;100.00